sensor_id;sensor_type;location;lat;lon;timestamp;pressure;altitude;pressure_sealevel;temperature;humidity
43691;BME280;29293;52.190;21.226;2023-04-21T00:21:39;100760.77;;;7.85;70.49
43691;BME280;29293;52.190;21.226;2023-04-21T00:36:48;100765.79;;;7.58;75.55
43691;BME280;29293;52.190;21.226;2023-04-21T00:51:56;100757.85;;;7.53;77.50
43691;BME280;29293;52.190;21.226;2023-04-21T01:07:05;100748.86;;;7.42;79.37
43691;BME280;29293;52.190;21.226;2023-04-21T01:22:13;100745.73;;;7.24;80.63
43691;BME280;29293;52.190;21.226;2023-04-21T01:37:21;100749.41;;;7.08;85.73
43691;BME280;29293;52.190;21.226;2023-04-21T01:52:34;100749.13;;;6.93;88.42
43691;BME280;29293;52.190;21.226;2023-04-21T02:07:43;100753.73;;;6.73;90.35
43691;BME280;29293;52.190;21.226;2023-04-21T02:22:50;100744.39;;;6.50;93.01
43691;BME280;29293;52.190;21.226;2023-04-21T02:38:00;100743.95;;;6.23;96.37
43691;BME280;29293;52.190;21.226;2023-04-21T02:53:11;100739.64;;;5.95;100.00
43691;BME280;29293;52.190;21.226;2023-04-21T03:08:18;100735.14;;;5.64;100.00
43691;BME280;29293;52.190;21.226;2023-04-21T03:23:31;100730.65;;;5.42;100.00
43691;BME280;29293;52.190;21.226;2023-04-21T03:38:39;100737.16;;;5.33;100.00
43691;BME280;29293;52.190;21.226;2023-04-21T03:53:51;100740.10;;;5.27;100.00
43691;BME280;29293;52.190;21.226;2023-04-21T04:08:59;100754.73;;;5.31;100.00
43691;BME280;29293;52.190;21.226;2023-04-21T04:24:12;100759.72;;;5.50;100.00
43691;BME280;29293;52.190;21.226;2023-04-21T04:39:21;100765.73;;;5.92;100.00
43691;BME280;29293;52.190;21.226;2023-04-21T04:54:29;100774.79;;;6.55;100.00
43691;BME280;29293;52.190;21.226;2023-04-21T05:09:38;100773.98;;;7.29;94.09
43691;BME280;29293;52.190;21.226;2023-04-21T05:24:50;100773.07;;;7.99;81.68
43691;BME280;29293;52.190;21.226;2023-04-21T05:40:09;100768.14;;;8.47;76.82
43691;BME280;29293;52.190;21.226;2023-04-21T05:55:17;100769.66;;;9.03;68.63
43691;BME280;29293;52.190;21.226;2023-04-21T06:10:26;100767.23;;;9.76;65.87
43691;BME280;29293;52.190;21.226;2023-04-21T06:25:35;100764.05;;;10.43;61.22
43691;BME280;29293;52.190;21.226;2023-04-21T06:40:44;100761.53;;;11.51;56.19
43691;BME280;29293;52.190;21.226;2023-04-21T06:55:52;100755.43;;;12.67;55.87
43691;BME280;29293;52.190;21.226;2023-04-21T07:11:02;100748.78;;;13.59;51.49
43691;BME280;29293;52.190;21.226;2023-04-21T07:26:16;100751.23;;;14.20;49.69
43691;BME280;29293;52.190;21.226;2023-04-21T07:41:44;100748.55;;;14.77;46.58
43691;BME280;29293;52.190;21.226;2023-04-21T07:56:58;100741.48;;;15.40;43.30
43691;BME280;29293;52.190;21.226;2023-04-21T08:12:08;100732.10;;;15.91;40.32
43691;BME280;29293;52.190;21.226;2023-04-21T08:27:26;100724.85;;;16.35;38.01
43691;BME280;29293;52.190;21.226;2023-04-21T08:42:36;100715.40;;;16.83;36.84
43691;BME280;29293;52.190;21.226;2023-04-21T08:57:49;100716.34;;;17.16;35.26
43691;BME280;29293;52.190;21.226;2023-04-21T09:13:06;100698.88;;;17.46;33.25
43691;BME280;29293;52.190;21.226;2023-04-21T09:28:15;100687.36;;;17.83;32.90
43691;BME280;29293;52.190;21.226;2023-04-21T09:43:30;100686.80;;;17.74;31.42
43691;BME280;29293;52.190;21.226;2023-04-21T09:58:43;100674.45;;;18.11;31.44
43691;BME280;29293;52.190;21.226;2023-04-21T10:13:51;100658.18;;;18.41;30.96
43691;BME280;29293;52.190;21.226;2023-04-21T10:29:00;100651.88;;;18.78;29.39
43691;BME280;29293;52.190;21.226;2023-04-21T10:44:14;100630.39;;;18.74;29.14
43691;BME280;29293;52.190;21.226;2023-04-21T10:59:28;100619.27;;;18.68;27.60
43691;BME280;29293;52.190;21.226;2023-04-21T11:14:36;100602.48;;;19.06;27.81
43691;BME280;29293;52.190;21.226;2023-04-21T11:29:44;100575.52;;;19.56;27.86
43691;BME280;29293;52.190;21.226;2023-04-21T11:44:52;100554.00;;;19.84;27.72
43691;BME280;29293;52.190;21.226;2023-04-21T12:00:03;100550.52;;;19.66;27.26
43691;BME280;29293;52.190;21.226;2023-04-21T12:15:17;100536.41;;;19.75;27.63
43691;BME280;29293;52.190;21.226;2023-04-21T12:30:25;100519.73;;;19.86;26.92
43691;BME280;29293;52.190;21.226;2023-04-21T12:45:32;100503.60;;;19.86;27.45
43691;BME280;29293;52.190;21.226;2023-04-21T13:00:39;100485.20;;;19.68;26.67
43691;BME280;29293;52.190;21.226;2023-04-21T13:15:47;100480.50;;;19.77;27.19
43691;BME280;29293;52.190;21.226;2023-04-21T13:30:54;100462.67;;;19.99;27.07
43691;BME280;29293;52.190;21.226;2023-04-21T13:46:00;100447.85;;;20.01;26.07
43691;BME280;29293;52.190;21.226;2023-04-21T14:01:07;100436.39;;;19.92;26.04
43691;BME280;29293;52.190;21.226;2023-04-21T14:16:14;100423.10;;;19.59;26.08
43691;BME280;29293;52.190;21.226;2023-04-21T14:31:21;100412.38;;;19.57;27.65
43691;BME280;29293;52.190;21.226;2023-04-21T14:46:28;100394.50;;;19.33;26.00
43691;BME280;29293;52.190;21.226;2023-04-21T15:01:35;100379.40;;;19.22;27.09
43691;BME280;29293;52.190;21.226;2023-04-21T15:16:42;100374.36;;;19.03;27.18
43691;BME280;29293;52.190;21.226;2023-04-21T15:31:49;100359.81;;;18.79;27.63
43691;BME280;29293;52.190;21.226;2023-04-21T15:46:56;100349.45;;;18.52;28.38
43691;BME280;29293;52.190;21.226;2023-04-21T16:02:03;100347.39;;;18.08;28.91
43691;BME280;29293;52.190;21.226;2023-04-21T16:17:10;100347.04;;;17.59;29.85
43691;BME280;29293;52.190;21.226;2023-04-21T16:32:17;100342.93;;;17.26;30.77
43691;BME280;29293;52.190;21.226;2023-04-21T16:47:24;100340.15;;;16.97;31.40
43691;BME280;29293;52.190;21.226;2023-04-21T17:02:31;100332.20;;;16.59;32.45
43691;BME280;29293;52.190;21.226;2023-04-21T17:17:40;100331.05;;;15.99;33.83
43691;BME280;29293;52.190;21.226;2023-04-21T17:32:48;100335.70;;;15.30;36.11
43691;BME280;29293;52.190;21.226;2023-04-21T17:47:55;100343.17;;;14.40;38.63
43691;BME280;29293;52.190;21.226;2023-04-21T18:03:02;100350.29;;;13.58;40.71
43691;BME280;29293;52.190;21.226;2023-04-21T18:18:09;100358.81;;;12.84;43.87
43691;BME280;29293;52.190;21.226;2023-04-21T18:33:16;100361.16;;;12.18;45.98
43691;BME280;29293;52.190;21.226;2023-04-21T18:48:23;100356.00;;;11.62;46.74
43691;BME280;29293;52.190;21.226;2023-04-21T19:03:30;100356.11;;;11.09;47.39
43691;BME280;29293;52.190;21.226;2023-04-21T19:18:37;100348.23;;;10.60;49.15
43691;BME280;29293;52.190;21.226;2023-04-21T19:33:44;100348.70;;;10.08;51.85
43691;BME280;29293;52.190;21.226;2023-04-21T19:48:51;100344.35;;;9.55;54.64
43691;BME280;29293;52.190;21.226;2023-04-21T20:03:58;100349.59;;;9.07;57.08
43691;BME280;29293;52.190;21.226;2023-04-21T20:19:05;100355.27;;;8.72;57.85
43691;BME280;29293;52.190;21.226;2023-04-21T20:34:13;100360.97;;;8.37;59.54
43691;BME280;29293;52.190;21.226;2023-04-21T20:49:20;100360.43;;;8.18;61.79
43691;BME280;29293;52.190;21.226;2023-04-21T21:04:27;100358.88;;;8.03;64.71
43691;BME280;29293;52.190;21.226;2023-04-21T21:19:34;100354.90;;;8.00;65.39
43691;BME280;29293;52.190;21.226;2023-04-21T21:34:41;100347.73;;;7.88;66.60
43691;BME280;29293;52.190;21.226;2023-04-21T21:49:48;100348.27;;;7.56;71.36
43691;BME280;29293;52.190;21.226;2023-04-21T22:04:59;100351.61;;;7.34;74.68
43691;BME280;29293;52.190;21.226;2023-04-21T22:20:08;100356.53;;;7.23;74.61
43691;BME280;29293;52.190;21.226;2023-04-21T22:35:16;100345.16;;;6.96;77.62
43691;BME280;29293;52.190;21.226;2023-04-21T22:50:23;100341.68;;;6.70;80.83
43691;BME280;29293;52.190;21.226;2023-04-21T23:05:31;100339.96;;;6.38;83.05
43691;BME280;29293;52.190;21.226;2023-04-21T23:20:37;100338.55;;;6.10;88.70
43691;BME280;29293;52.190;21.226;2023-04-21T23:35:45;100332.60;;;5.99;92.92
43691;BME280;29293;52.190;21.226;2023-04-21T23:50:52;100339.98;;;5.63;97.46
